createdAt,value
2022-11-13T00:00:01.745Z,94.39
2022-11-13T00:01:22.249Z,94.50
2022-11-13T00:02:34.732Z,94.05
2022-11-13T00:03:48.435Z,94.10
2022-11-13T00:04:55.579Z,93.83
2022-11-13T00:06:04.700Z,94.04
2022-11-13T00:07:08.872Z,94.11
2022-11-13T00:08:19.327Z,94.12
2022-11-13T00:09:23.400Z,94.29
2022-11-13T00:10:27.872Z,94.62
2022-11-13T00:11:38.012Z,95.09
2022-11-13T00:12:41.743Z,95.06
2022-11-13T00:13:46.802Z,95.28
2022-11-13T00:14:50.292Z,95.44
2022-11-13T00:16:19.988Z,95.96
2022-11-13T00:17:28.598Z,95.97
2022-11-13T00:18:37.265Z,95.95
2022-11-13T00:19:42.552Z,95.43
2022-11-13T00:20:51.849Z,95.05
2022-11-13T00:21:57.460Z,95.16
2022-11-13T00:23:13.264Z,95.19
2022-11-13T00:24:39.335Z,94.84
2022-11-13T00:25:50.143Z,94.66
2022-11-13T00:26:53.992Z,94.71
2022-11-13T00:27:57.446Z,94.17
2022-11-13T00:29:06.416Z,94.39
2022-11-13T00:30:16.356Z,94.32
2022-11-13T00:31:22.908Z,94.23
2022-11-13T00:32:27.320Z,93.80
2022-11-13T00:34:01.976Z,93.66
2022-11-13T00:34:55.189Z,93.36
2022-11-13T00:36:15.973Z,93.35
2022-11-13T00:37:20.841Z,92.88
2022-11-13T00:38:24.862Z,93.58
2022-11-13T00:39:28.890Z,93.64
2022-11-13T00:40:32.734Z,93.50
2022-11-13T00:41:36.518Z,93.19
2022-11-13T00:42:40.812Z,93.39
2022-11-13T00:43:44.647Z,93.14
2022-11-13T00:44:48.237Z,93.08
2022-11-13T00:45:53.719Z,93.16
2022-11-13T00:46:59.938Z,92.88
2022-11-13T00:48:03.829Z,93.09
2022-11-13T00:49:07.510Z,92.68
2022-11-13T00:50:14.740Z,92.50
2022-11-13T00:51:19.817Z,92.73
2022-11-13T00:52:23.416Z,92.70
2022-11-13T00:53:27.421Z,92.77
2022-11-13T00:54:35.903Z,93.01
2022-11-13T00:55:44.985Z,93.05
2022-11-13T00:56:51.452Z,92.82
2022-11-13T00:57:55.352Z,93.11
2022-11-13T00:58:59.727Z,93.25
2022-11-13T01:00:04.835Z,93.04
2022-11-13T01:01:16.540Z,93.10
2022-11-13T01:02:20.469Z,93.10
2022-11-13T01:03:24.172Z,93.40
2022-11-13T01:04:32.303Z,93.16
2022-11-13T01:05:54.688Z,93.21
2022-11-13T01:06:59.051Z,93.23
2022-11-13T01:08:05.999Z,93.25
2022-11-13T01:09:10.316Z,93.22
2022-11-13T01:10:14.495Z,93.49
2022-11-13T01:11:23.420Z,93.84
2022-11-13T01:12:27.421Z,94.32
2022-11-13T01:13:31.654Z,94.63
2022-11-13T01:14:36.004Z,94.03
2022-11-13T01:15:47.535Z,93.74
2022-11-13T01:16:54.884Z,93.75
2022-11-13T01:18:01.315Z,93.81
2022-11-13T01:19:05.022Z,93.86
2022-11-13T01:20:11.777Z,93.76
2022-11-13T01:21:22.257Z,93.50
2022-11-13T01:22:25.976Z,93.44
2022-11-13T01:23:29.663Z,93.84
2022-11-13T01:24:33.435Z,93.83
2022-11-13T01:25:37.643Z,93.59
2022-11-13T01:26:41.224Z,93.79
2022-11-13T01:27:45.259Z,93.44
2022-11-13T01:28:51.207Z,93.63
2022-11-13T01:29:54.838Z,93.51
2022-11-13T01:30:58.398Z,93.65
2022-11-13T01:32:02.435Z,93.25
2022-11-13T01:33:11.924Z,93.50
2022-11-13T01:34:19.756Z,93.91
2022-11-13T01:35:24.519Z,93.54
2022-11-13T01:36:32.304Z,93.88
2022-11-13T01:37:41.124Z,93.72
2022-11-13T01:38:46.002Z,93.63
2022-11-13T01:39:50.191Z,93.78
2022-11-13T01:40:54.910Z,93.88
2022-11-13T01:41:59.469Z,93.49
2022-11-13T01:43:25.062Z,94.02
2022-11-13T01:44:51.366Z,94.17
2022-11-13T01:46:05.998Z,94.31
2022-11-13T01:47:11.546Z,94.07
2022-11-13T01:48:16.274Z,94.26
2022-11-13T01:49:38.062Z,93.64
2022-11-13T01:50:41.632Z,93.93
2022-11-13T01:52:12.547Z,93.76
2022-11-13T01:53:21.323Z,93.40
2022-11-13T01:56:31.505Z,93.56
2022-11-13T01:57:47.680Z,93.17
2022-11-13T01:59:36.228Z,93.31
2022-11-13T02:00:41.742Z,93.49
2022-11-13T02:01:45.355Z,93.48
2022-11-13T02:02:49.932Z,93.09
2022-11-13T02:04:03.603Z,93.28
2022-11-13T02:05:11.359Z,93.41
2022-11-13T02:06:20.043Z,93.35
2022-11-13T02:07:28.676Z,93.46
2022-11-13T02:08:36.854Z,93.53
2022-11-13T02:10:11.476Z,93.23
2022-11-13T02:11:29.096Z,93.35
2022-11-13T02:12:49.412Z,92.93
2022-11-13T02:14:53.152Z,92.71
2022-11-13T02:15:41.779Z,93.00
2022-11-13T02:17:02.657Z,93.05
2022-11-13T02:18:15.906Z,92.47
2022-11-13T02:19:53.158Z,92.41
2022-11-13T02:21:46.936Z,92.65
2022-11-13T02:23:19.114Z,92.88
2022-11-13T02:24:45.025Z,92.66
2022-11-13T02:25:58.575Z,92.54
2022-11-13T02:27:22.082Z,92.57
2022-11-13T02:28:36.750Z,92.75
2022-11-13T02:29:40.735Z,92.37
2022-11-13T02:30:46.511Z,92.27
2022-11-13T02:31:52.295Z,92.27
2022-11-13T02:32:59.901Z,92.72
2022-11-13T02:34:06.183Z,92.93
2022-11-13T02:35:15.298Z,92.74
2022-11-13T02:36:27.681Z,92.87
2022-11-13T02:37:42.957Z,92.38
2022-11-13T02:38:54.492Z,92.65
2022-11-13T02:40:02.350Z,92.34
2022-11-13T02:41:09.182Z,92.47
2022-11-13T02:42:23.301Z,92.55
2022-11-13T02:43:29.626Z,92.41
2022-11-13T02:44:34.197Z,92.58
2022-11-13T02:45:41.712Z,92.64
2022-11-13T02:46:45.283Z,92.45
2022-11-13T02:47:52.708Z,92.57
2022-11-13T02:48:57.091Z,92.17
2022-11-13T02:50:00.672Z,92.10
2022-11-13T02:51:05.153Z,91.80
2022-11-13T02:52:16.223Z,92.02
2022-11-13T02:53:19.823Z,92.16
2022-11-13T02:54:23.422Z,92.29
2022-11-13T02:55:27.232Z,92.25
2022-11-13T02:56:30.790Z,92.25
2022-11-13T02:57:34.418Z,92.16
2022-11-13T02:58:37.966Z,91.93
2022-11-13T02:59:42.526Z,91.61
2022-11-13T03:02:21.239Z,91.57
2022-11-13T03:03:56.684Z,92.30
2022-11-13T03:06:18.471Z,92.43
2022-11-13T03:07:22.842Z,92.49
2022-11-13T03:08:28.647Z,92.82
2022-11-13T03:09:33.203Z,92.80
2022-11-13T03:10:38.181Z,92.61
2022-11-13T03:11:48.006Z,92.68
2022-11-13T03:12:51.695Z,93.07
2022-11-13T03:13:55.303Z,92.70
2022-11-13T03:14:59.911Z,93.05
2022-11-13T03:16:15.055Z,92.71
2022-11-13T03:17:20.479Z,92.66
2022-11-13T03:18:26.599Z,92.78
2022-11-13T03:19:32.214Z,92.71
2022-11-13T03:20:42.106Z,92.59
2022-11-13T03:21:46.321Z,92.46
2022-11-13T03:22:50.427Z,92.58
2022-11-13T03:23:55.162Z,92.34
2022-11-13T03:24:59.255Z,92.70
2022-11-13T03:26:13.767Z,92.79
2022-11-13T03:27:17.290Z,92.57
2022-11-13T03:28:20.902Z,92.83
2022-11-13T03:29:27.668Z,92.55
2022-11-13T03:30:33.862Z,92.31
2022-11-13T03:31:38.000Z,92.62
2022-11-13T03:32:41.966Z,92.30
2022-11-13T03:33:48.977Z,92.37
2022-11-13T03:34:53.554Z,92.75
2022-11-13T03:35:57.596Z,92.37
2022-11-13T03:37:07.283Z,92.37
2022-11-13T03:38:12.006Z,92.54
2022-11-13T03:39:23.019Z,92.64
2022-11-13T03:40:36.849Z,92.57
2022-11-13T03:41:44.707Z,92.65
2022-11-13T03:42:50.420Z,92.26
2022-11-13T03:43:54.911Z,92.34
2022-11-13T03:45:03.250Z,92.05
2022-11-13T03:46:06.943Z,92.00
2022-11-13T03:47:24.731Z,92.07
2022-11-13T03:48:30.518Z,92.13
2022-11-13T03:49:35.626Z,92.04
2022-11-13T03:50:44.280Z,92.23
2022-11-13T03:51:49.096Z,92.52
2022-11-13T03:52:53.684Z,92.71
2022-11-13T03:54:00.548Z,92.58
2022-11-13T03:55:06.082Z,92.51
2022-11-13T03:56:11.756Z,92.77
2022-11-13T03:57:17.297Z,93.07
2022-11-13T03:58:21.319Z,92.75
2022-11-13T03:59:28.064Z,92.46
2022-11-13T04:00:32.896Z,92.57
2022-11-13T04:01:36.688Z,92.39
2022-11-13T04:02:43.033Z,92.56
2022-11-13T04:03:48.640Z,92.65
2022-11-13T04:04:52.885Z,92.81
2022-11-13T04:06:00.430Z,92.93
2022-11-13T04:07:07.481Z,93.09
2022-11-13T04:08:14.366Z,93.41
2022-11-13T04:09:18.235Z,93.18
2022-11-13T04:10:22.307Z,92.93
2022-11-13T04:11:35.385Z,93.27
2022-11-13T04:12:42.100Z,93.07
2022-11-13T04:13:47.829Z,92.97
2022-11-13T04:14:51.419Z,92.72
2022-11-13T04:15:57.752Z,93.08
2022-11-13T04:17:02.145Z,92.97
2022-11-13T04:18:10.052Z,93.31
2022-11-13T04:19:13.680Z,93.44
2022-11-13T04:20:18.283Z,93.48
2022-11-13T04:21:23.386Z,93.95
2022-11-13T04:22:28.497Z,93.48
2022-11-13T04:23:33.964Z,93.75
2022-11-13T04:24:38.871Z,94.04
2022-11-13T04:25:43.181Z,93.91
2022-11-13T04:26:49.223Z,94.11
2022-11-13T04:27:58.060Z,93.93
2022-11-13T04:29:05.115Z,93.88
2022-11-13T04:30:12.175Z,94.04
2022-11-13T04:31:19.585Z,94.08
2022-11-13T04:32:26.738Z,94.10
2022-11-13T04:33:30.579Z,93.96
2022-11-13T04:34:35.046Z,93.98
2022-11-13T04:35:43.642Z,94.05
2022-11-13T04:36:49.236Z,93.84
2022-11-13T04:38:00.403Z,94.08
2022-11-13T04:39:05.675Z,94.34
2022-11-13T04:40:10.602Z,94.19
2022-11-13T04:41:32.867Z,94.52
2022-11-13T04:42:51.829Z,94.50
2022-11-13T04:43:55.467Z,94.34
2022-11-13T04:44:58.921Z,94.65
2022-11-13T04:46:02.417Z,94.40
2022-11-13T04:47:06.064Z,94.69
2022-11-13T04:48:09.859Z,94.29
2022-11-13T04:49:13.585Z,94.55
2022-11-13T04:50:19.679Z,94.52
2022-11-13T04:51:23.652Z,94.48
2022-11-13T04:52:28.806Z,94.54
2022-11-13T04:53:36.534Z,94.47
2022-11-13T04:54:41.535Z,95.01
2022-11-13T04:55:49.059Z,95.00
2022-11-13T04:57:14.565Z,95.13
2022-11-13T04:58:21.023Z,94.90
2022-11-13T04:59:27.715Z,94.76
2022-11-13T05:00:33.321Z,95.33
2022-11-13T05:01:37.508Z,95.24
2022-11-13T05:02:41.137Z,95.25
2022-11-13T05:03:45.320Z,94.97
2022-11-13T05:04:49.160Z,94.74
2022-11-13T05:05:53.792Z,94.79
2022-11-13T05:06:59.919Z,94.61
2022-11-13T05:08:05.019Z,94.36
2022-11-13T05:09:12.333Z,94.22
2022-11-13T05:10:23.408Z,94.47
2022-11-13T05:11:39.241Z,94.84
2022-11-13T05:12:48.050Z,94.60
2022-11-13T05:14:03.094Z,94.71
2022-11-13T05:15:09.614Z,94.42
2022-11-13T05:16:15.973Z,94.37
2022-11-13T05:17:22.160Z,94.72
2022-11-13T05:18:27.432Z,94.52
2022-11-13T05:19:34.729Z,94.47
2022-11-13T05:20:40.792Z,94.53
2022-11-13T05:21:44.871Z,94.48
2022-11-13T05:22:48.595Z,94.42
2022-11-13T05:23:55.040Z,94.35
2022-11-13T05:25:04.936Z,94.72
2022-11-13T05:26:16.672Z,94.80
2022-11-13T05:27:20.673Z,95.01
2022-11-13T05:28:28.691Z,95.03
2022-11-13T05:29:40.934Z,95.05
2022-11-13T05:31:32.525Z,95.33
2022-11-13T05:32:24.945Z,95.01
2022-11-13T05:33:32.684Z,95.09
2022-11-13T05:34:36.725Z,95.11
2022-11-13T05:35:51.214Z,95.60
2022-11-13T05:36:56.372Z,94.95
2022-11-13T05:38:05.121Z,94.57
2022-11-13T05:39:12.143Z,94.58
2022-11-13T05:40:19.202Z,94.50
2022-11-13T05:41:24.717Z,94.44
2022-11-13T05:42:32.139Z,94.47
2022-11-13T05:43:38.646Z,94.18
2022-11-13T05:44:47.345Z,94.21
2022-11-13T05:46:21.919Z,94.49
2022-11-13T05:47:31.857Z,94.30
2022-11-13T05:48:43.272Z,94.46
2022-11-13T05:49:55.275Z,94.21
2022-11-13T05:51:25.354Z,94.93
2022-11-13T05:52:31.341Z,94.47
2022-11-13T05:53:38.396Z,94.87
2022-11-13T05:54:46.187Z,95.53
2022-11-13T05:56:12.152Z,95.92
2022-11-13T05:57:19.602Z,96.03
2022-11-13T05:58:31.140Z,96.02
2022-11-13T06:00:00.201Z,95.86
2022-11-13T06:01:24.169Z,96.47
2022-11-13T06:02:33.603Z,96.08
2022-11-13T06:03:48.726Z,96.34
2022-11-13T06:05:00.941Z,95.97
2022-11-13T06:06:18.729Z,96.43
2022-11-13T06:07:26.779Z,96.26
2022-11-13T06:08:33.838Z,96.31
2022-11-13T06:09:38.868Z,96.58
2022-11-13T06:10:46.281Z,96.61
2022-11-13T06:11:54.155Z,96.43
2022-11-13T06:13:02.639Z,96.18
2022-11-13T06:14:12.509Z,96.37
2022-11-13T06:15:20.205Z,96.37
2022-11-13T06:16:38.943Z,96.12
2022-11-13T06:17:47.267Z,96.18
2022-11-13T06:18:54.787Z,96.17
2022-11-13T06:19:58.731Z,96.43
2022-11-13T06:21:22.242Z,96.22
2022-11-13T06:22:28.919Z,96.03
2022-11-13T06:23:39.471Z,96.40
2022-11-13T06:24:50.016Z,96.93
2022-11-13T06:26:05.306Z,97.13
2022-11-13T06:27:11.953Z,96.80
2022-11-13T06:28:16.064Z,96.77
2022-11-13T06:29:21.263Z,96.92
2022-11-13T06:30:35.452Z,96.89
2022-11-13T06:31:39.663Z,96.76
2022-11-13T06:32:46.331Z,96.38
2022-11-13T06:33:52.257Z,96.44
2022-11-13T06:34:59.984Z,96.42
2022-11-13T06:36:17.234Z,96.68
2022-11-13T06:37:21.672Z,96.20
2022-11-13T06:38:27.250Z,96.06
2022-11-13T06:39:33.653Z,95.80
2022-11-13T06:40:45.706Z,95.92
2022-11-13T06:41:57.732Z,96.18
2022-11-13T06:43:12.991Z,96.64
2022-11-13T06:44:22.420Z,96.79
2022-11-13T06:45:35.597Z,96.51
2022-11-13T06:46:50.524Z,96.58
2022-11-13T06:48:01.467Z,96.85
2022-11-13T06:49:12.729Z,96.76
2022-11-13T06:50:26.186Z,96.73
2022-11-13T06:51:41.822Z,97.20
2022-11-13T06:52:51.941Z,96.94
2022-11-13T06:53:58.716Z,96.59
2022-11-13T06:55:02.595Z,96.81
2022-11-13T06:56:07.693Z,96.77
2022-11-13T06:57:12.155Z,96.50
2022-11-13T06:58:18.373Z,96.12
2022-11-13T06:59:22.405Z,95.89
2022-11-13T07:00:36.256Z,96.01
2022-11-13T07:01:44.515Z,95.78
2022-11-13T07:02:52.295Z,96.02
2022-11-13T07:03:58.170Z,96.39
2022-11-13T07:05:03.078Z,96.06
2022-11-13T07:06:18.406Z,96.24
2022-11-13T07:07:26.676Z,96.46
2022-11-13T07:08:39.118Z,96.18
2022-11-13T07:11:22.554Z,95.92
2022-11-13T07:12:33.556Z,95.67
2022-11-13T07:13:43.411Z,95.91
2022-11-13T07:14:56.018Z,96.17
2022-11-13T07:16:19.104Z,96.52
2022-11-13T07:17:33.101Z,96.79
2022-11-13T07:18:40.988Z,96.69
2022-11-13T07:19:51.754Z,96.73
2022-11-13T07:21:02.914Z,97.03
2022-11-13T07:22:09.995Z,97.37
2022-11-13T07:23:15.187Z,97.65
2022-11-13T07:24:20.255Z,97.40
2022-11-13T07:25:25.445Z,97.61
2022-11-13T07:26:32.020Z,97.59
2022-11-13T07:27:38.412Z,97.54
2022-11-13T07:28:44.851Z,97.07
2022-11-13T07:29:50.384Z,97.30
2022-11-13T07:31:04.064Z,97.18
2022-11-13T07:32:08.162Z,96.95
2022-11-13T07:33:14.322Z,96.93
2022-11-13T07:34:22.028Z,96.69
2022-11-13T07:35:26.888Z,96.65
2022-11-13T07:36:33.337Z,96.92
2022-11-13T07:37:40.414Z,96.95
2022-11-13T07:38:48.089Z,96.72
2022-11-13T07:39:52.306Z,96.35
2022-11-13T07:41:00.101Z,96.47
2022-11-13T07:42:06.437Z,96.69
2022-11-13T07:43:13.896Z,96.76
2022-11-13T07:44:39.933Z,97.08
2022-11-13T07:45:45.171Z,97.58
2022-11-13T07:46:50.025Z,97.26
2022-11-13T07:48:04.031Z,97.38
2022-11-13T07:49:11.768Z,97.71
2022-11-13T07:50:15.912Z,97.71
2022-11-13T07:51:20.748Z,98.11
2022-11-13T07:52:27.942Z,98.09
2022-11-13T07:53:33.765Z,98.37
2022-11-13T07:54:37.386Z,98.46
2022-11-13T07:55:45.406Z,98.44
2022-11-13T07:56:59.381Z,98.10
2022-11-13T07:58:06.046Z,98.19
2022-11-13T07:59:13.387Z,98.30
2022-11-13T08:00:20.511Z,98.18
2022-11-13T08:01:24.850Z,98.26
2022-11-13T08:02:35.139Z,98.36
2022-11-13T08:03:49.233Z,98.46
2022-11-13T08:04:53.503Z,98.19
2022-11-13T08:06:13.015Z,98.77
2022-11-13T08:07:16.860Z,98.30
2022-11-13T08:08:20.924Z,98.56
2022-11-13T08:09:24.541Z,98.04
2022-11-13T08:10:29.815Z,98.21
2022-11-13T08:11:33.656Z,97.84
2022-11-13T08:12:37.453Z,97.94
2022-11-13T08:13:41.626Z,98.18
2022-11-13T08:14:45.229Z,98.26
2022-11-13T08:15:49.137Z,98.25
2022-11-13T08:16:52.700Z,98.46
2022-11-13T08:18:00.045Z,98.36
2022-11-13T08:19:08.158Z,98.09
2022-11-13T08:20:13.580Z,98.70
2022-11-13T08:21:18.994Z,98.61
2022-11-13T08:22:23.645Z,98.62
2022-11-13T08:23:27.995Z,98.39
2022-11-13T08:24:39.297Z,98.25
2022-11-13T08:25:43.031Z,98.16
2022-11-13T08:26:48.354Z,98.13
2022-11-13T08:27:54.769Z,97.83
2022-11-13T08:28:58.968Z,97.98
2022-11-13T08:30:06.585Z,97.19
2022-11-13T08:31:16.905Z,97.39
2022-11-13T08:32:34.354Z,96.92
2022-11-13T08:33:41.759Z,97.36
2022-11-13T08:34:53.114Z,97.25
2022-11-13T08:36:15.578Z,97.28
2022-11-13T08:37:20.975Z,97.01
2022-11-13T08:38:32.152Z,97.18
2022-11-13T08:39:42.082Z,97.27
2022-11-13T08:40:50.991Z,97.53
2022-11-13T08:42:29.116Z,97.95
2022-11-13T08:43:43.236Z,98.14
2022-11-13T08:44:50.437Z,98.01
2022-11-13T08:45:56.559Z,97.89
2022-11-13T08:47:11.607Z,97.90
2022-11-13T08:48:20.912Z,98.58
2022-11-13T08:49:30.779Z,98.57
2022-11-13T08:50:40.207Z,98.76
2022-11-13T08:51:49.473Z,98.63
2022-11-13T08:52:57.277Z,98.97
2022-11-13T08:54:08.263Z,98.40
2022-11-13T08:55:19.281Z,98.85
2022-11-13T08:56:24.456Z,98.99
2022-11-13T08:57:32.477Z,99.47
2022-11-13T08:58:40.471Z,99.10
2022-11-13T08:59:48.568Z,99.00
2022-11-13T09:00:55.361Z,99.09
2022-11-13T09:02:03.657Z,98.99
2022-11-13T09:03:18.013Z,98.79
2022-11-13T09:04:27.709Z,98.92
2022-11-13T09:05:50.860Z,99.20
2022-11-13T09:06:57.588Z,99.37
2022-11-13T09:08:06.535Z,99.10
2022-11-13T09:09:18.227Z,99.16
2022-11-13T09:10:26.732Z,98.75
2022-11-13T09:11:34.119Z,98.56
2022-11-13T09:12:43.135Z,99.48
2022-11-13T09:13:53.220Z,99.85
2022-11-13T09:15:05.721Z,99.71
2022-11-13T09:16:16.317Z,99.80
2022-11-13T09:17:26.233Z,99.59
2022-11-13T09:19:59.489Z,100.00
2022-11-13T09:21:11.656Z,99.93
2022-11-13T09:22:18.109Z,99.84
2022-11-13T09:23:26.307Z,99.76
2022-11-13T09:24:32.111Z,99.75
2022-11-13T09:25:38.471Z,99.79
2022-11-13T09:26:47.713Z,99.71
2022-11-13T09:28:01.656Z,99.68
2022-11-13T09:29:06.583Z,100.00
2022-11-13T09:30:13.042Z,100.00
2022-11-13T09:31:16.992Z,100.00
2022-11-13T09:32:24.632Z,100.00
2022-11-13T09:33:28.405Z,100.00
2022-11-13T09:34:37.073Z,100.00
2022-11-13T09:35:42.167Z,100.00
2022-11-13T09:36:50.291Z,100.00
2022-11-13T09:37:55.319Z,100.00
2022-11-13T09:39:03.357Z,100.00
2022-11-13T09:40:26.102Z,100.00
2022-11-13T09:41:45.001Z,100.00
2022-11-13T09:42:50.953Z,100.00
2022-11-13T09:44:04.023Z,100.00
2022-11-13T09:45:16.782Z,100.00
2022-11-13T09:46:38.096Z,100.00
2022-11-13T09:47:48.926Z,100.00
2022-11-13T09:49:20.903Z,99.71
2022-11-13T09:50:34.557Z,99.64
2022-11-13T09:51:55.010Z,99.83
2022-11-13T09:53:23.474Z,99.77
2022-11-13T09:54:37.935Z,99.33
2022-11-13T09:56:20.297Z,99.48
2022-11-13T09:57:49.825Z,99.50
2022-11-13T09:59:22.063Z,99.91
2022-11-13T10:00:35.683Z,99.69
2022-11-13T10:02:28.430Z,99.71
2022-11-13T10:04:05.192Z,100.00
2022-11-13T10:05:47.237Z,99.86
2022-11-13T10:07:38.410Z,99.72
2022-11-13T10:09:24.655Z,99.99
2022-11-13T10:11:02.736Z,99.83
2022-11-13T10:12:14.448Z,99.69
2022-11-13T10:13:31.666Z,99.10
2022-11-13T10:14:46.539Z,98.99
2022-11-13T10:16:17.750Z,99.43
2022-11-13T10:18:32.639Z,99.57
2022-11-13T10:20:01.487Z,99.68
2022-11-13T10:21:45.513Z,99.82
2022-11-13T10:23:18.676Z,99.11
2022-11-13T10:24:47.078Z,99.19
2022-11-13T10:25:52.894Z,98.86
2022-11-13T10:27:00.345Z,98.50
2022-11-13T10:29:55.445Z,98.25
2022-11-13T10:31:03.560Z,98.03
2022-11-13T10:32:23.841Z,98.42
2022-11-13T10:33:33.169Z,97.98
2022-11-13T10:34:44.505Z,97.59
2022-11-13T10:36:26.325Z,97.04
2022-11-13T10:38:04.873Z,96.88
2022-11-13T10:39:11.754Z,96.77
2022-11-13T10:40:31.732Z,96.69
2022-11-13T10:41:52.524Z,96.12
2022-11-13T10:43:15.096Z,96.07
2022-11-13T10:44:31.144Z,96.01
2022-11-13T10:45:34.717Z,95.71
2022-11-13T10:46:39.249Z,95.34
2022-11-13T10:48:07.458Z,95.06
2022-11-13T10:49:22.464Z,94.55
2022-11-13T10:50:33.298Z,95.48
2022-11-13T10:51:37.293Z,95.78
2022-11-13T10:52:51.822Z,95.44
2022-11-13T10:54:03.091Z,95.62
2022-11-13T10:55:24.443Z,95.63
2022-11-13T10:56:40.386Z,95.68
2022-11-13T10:58:01.599Z,95.62
2022-11-13T10:59:22.673Z,95.50
2022-11-13T11:00:39.479Z,95.37
2022-11-13T11:01:54.147Z,95.44
2022-11-13T11:03:02.477Z,95.06
2022-11-13T11:04:36.222Z,94.63
2022-11-13T11:06:03.678Z,94.65
2022-11-13T11:07:20.577Z,94.45
2022-11-13T11:08:38.931Z,94.71
2022-11-13T11:09:52.354Z,94.32
2022-11-13T11:11:37.104Z,94.04
2022-11-13T11:12:52.777Z,93.71
2022-11-13T11:14:21.944Z,93.58
2022-11-13T11:16:07.978Z,93.27
2022-11-13T11:17:20.249Z,93.75
2022-11-13T11:18:50.672Z,94.00
2022-11-13T11:20:41.515Z,93.79
2022-11-13T11:22:24.380Z,93.59
2022-11-13T11:23:55.743Z,93.92
2022-11-13T11:25:40.795Z,93.83
2022-11-13T11:27:35.439Z,93.71
2022-11-13T11:29:36.824Z,93.91
2022-11-13T11:31:05.513Z,94.09
2022-11-13T11:32:52.783Z,93.87
2022-11-13T11:34:18.615Z,93.87
2022-11-13T11:36:23.765Z,93.48
2022-11-13T11:37:56.341Z,93.11
2022-11-13T11:39:47.817Z,93.22
2022-11-13T11:41:15.988Z,92.88
2022-11-13T11:43:15.391Z,92.50
2022-11-13T11:45:04.316Z,92.01
2022-11-13T11:46:18.834Z,91.94
2022-11-13T11:47:27.633Z,91.90
2022-11-13T11:48:37.797Z,91.84
2022-11-13T11:49:47.612Z,91.54
2022-11-13T11:51:37.609Z,92.06
2022-11-13T11:53:17.160Z,91.85
2022-11-13T11:55:13.031Z,91.22
2022-11-13T11:56:40.194Z,91.57
2022-11-13T11:58:00.879Z,91.63
2022-11-13T12:00:07.890Z,91.35
2022-11-13T12:01:33.690Z,91.16
2022-11-13T12:03:12.743Z,91.46
2022-11-13T12:04:42.371Z,91.24
2022-11-13T12:06:10.832Z,91.90
2022-11-13T12:07:56.680Z,91.81
2022-11-13T12:09:13.743Z,92.39
2022-11-13T12:10:43.394Z,92.56
2022-11-13T12:12:42.171Z,92.84
2022-11-13T12:13:58.615Z,92.53
2022-11-13T12:15:39.584Z,92.44
2022-11-13T12:17:02.685Z,92.17
2022-11-13T12:18:37.348Z,92.06
2022-11-13T12:20:05.147Z,91.77
2022-11-13T12:21:52.124Z,91.55
2022-11-13T12:23:17.811Z,91.79
2022-11-13T12:25:05.056Z,91.43
2022-11-13T12:26:45.888Z,91.46
2022-11-13T12:28:15.164Z,91.37
2022-11-13T12:29:41.022Z,91.48
2022-11-13T12:31:20.323Z,91.11
2022-11-13T12:33:00.503Z,91.01
2022-11-13T12:34:41.039Z,91.17
2022-11-13T12:35:56.975Z,91.31
2022-11-13T12:37:47.082Z,91.43
2022-11-13T12:39:09.323Z,91.05
2022-11-13T12:42:15.793Z,91.75
2022-11-13T12:43:54.962Z,92.04
2022-11-13T12:45:46.396Z,92.25
2022-11-13T12:47:09.273Z,92.48
2022-11-13T12:48:39.140Z,92.88
2022-11-13T12:50:06.061Z,93.30
2022-11-13T12:51:18.768Z,93.32
2022-11-13T12:52:26.759Z,93.43
2022-11-13T12:53:54.009Z,93.44
2022-11-13T12:55:30.491Z,92.78
2022-11-13T12:56:42.257Z,92.94
2022-11-13T12:58:01.200Z,92.88
2022-11-13T12:59:33.852Z,93.12
2022-11-13T13:00:52.903Z,92.62
2022-11-13T13:02:09.463Z,92.54
2022-11-13T13:03:21.310Z,92.63
2022-11-13T13:04:46.651Z,92.25
2022-11-13T13:06:31.068Z,92.23
2022-11-13T13:08:33.117Z,92.21
2022-11-13T13:10:24.135Z,91.84
2022-11-13T13:12:51.502Z,92.00
2022-11-13T13:15:02.299Z,92.33
2022-11-13T13:16:10.760Z,92.56
2022-11-13T13:17:24.065Z,92.75
2022-11-13T13:18:35.258Z,92.57
2022-11-13T13:19:42.033Z,92.33
2022-11-13T13:21:19.730Z,92.60
2022-11-13T13:22:35.783Z,92.82
2022-11-13T13:23:47.524Z,92.95
2022-11-13T13:25:36.429Z,92.66
2022-11-13T13:26:47.921Z,92.75
2022-11-13T13:28:06.274Z,92.82
2022-11-13T13:29:25.218Z,92.86
2022-11-13T13:30:35.192Z,92.67
2022-11-13T13:32:20.645Z,92.83
2022-11-13T13:33:57.850Z,92.63
2022-11-13T13:35:06.088Z,92.69
2022-11-13T13:36:44.972Z,92.72
2022-11-13T13:37:58.591Z,93.78
2022-11-13T13:39:38.891Z,93.44
2022-11-13T13:41:02.618Z,93.07
2022-11-13T13:42:48.351Z,92.84
2022-11-13T13:44:20.906Z,93.27
2022-11-13T13:46:16.129Z,93.06
2022-11-13T13:47:36.203Z,93.41
2022-11-13T13:48:49.248Z,93.53
2022-11-13T13:50:00.975Z,93.40
2022-11-13T13:51:40.403Z,93.61
2022-11-13T13:52:54.241Z,93.55
2022-11-13T13:54:08.924Z,93.40
2022-11-13T13:55:43.761Z,93.58
2022-11-13T13:56:48.702Z,93.53
2022-11-13T13:57:54.632Z,93.65
2022-11-13T13:59:00.088Z,93.69
2022-11-13T14:00:18.891Z,93.49
2022-11-13T14:01:36.471Z,94.01
2022-11-13T14:02:56.568Z,93.95
2022-11-13T14:04:20.594Z,93.75
2022-11-13T14:05:32.642Z,93.90
2022-11-13T14:06:36.793Z,94.39
2022-11-13T14:07:47.431Z,94.24
2022-11-13T14:08:51.163Z,93.94
2022-11-13T14:10:13.164Z,94.36
2022-11-13T14:11:21.184Z,94.02
2022-11-13T14:12:25.247Z,93.87
2022-11-13T14:13:30.014Z,94.40
2022-11-13T14:14:34.166Z,94.30
2022-11-13T14:15:37.781Z,94.49
2022-11-13T14:16:54.426Z,95.51
2022-11-13T14:18:18.063Z,95.39
2022-11-13T14:19:23.855Z,95.37
2022-11-13T14:20:29.539Z,94.95
2022-11-13T14:21:35.518Z,94.96
2022-11-13T14:22:44.359Z,95.20
2022-11-13T14:23:57.628Z,94.93
2022-11-13T14:25:02.241Z,95.22
2022-11-13T14:26:12.145Z,95.11
2022-11-13T14:27:28.661Z,95.54
2022-11-13T14:28:45.706Z,96.09
2022-11-13T14:30:00.349Z,96.23
2022-11-13T14:31:10.282Z,96.28
2022-11-13T14:32:22.488Z,96.48
2022-11-13T14:33:43.263Z,96.57
2022-11-13T14:34:59.841Z,96.25
2022-11-13T14:36:18.784Z,96.55
2022-11-13T14:37:39.907Z,96.22
2022-11-13T14:38:52.115Z,96.58
2022-11-13T14:40:07.638Z,96.61
2022-11-13T14:41:51.505Z,96.60
2022-11-13T14:43:09.075Z,97.00
2022-11-13T14:44:17.431Z,96.63
2022-11-13T14:45:27.437Z,97.12
2022-11-13T14:46:44.752Z,97.25
2022-11-13T14:48:28.816Z,96.76
2022-11-13T14:49:38.048Z,97.10
2022-11-13T14:50:55.051Z,96.43
2022-11-13T14:52:01.328Z,96.61
2022-11-13T14:53:09.919Z,96.66
2022-11-13T14:55:08.125Z,96.32
2022-11-13T14:56:10.736Z,96.37
2022-11-13T14:57:16.248Z,96.56
2022-11-13T14:58:36.676Z,96.93
2022-11-13T14:59:44.595Z,97.04
2022-11-13T15:00:49.661Z,96.99
2022-11-13T15:01:59.751Z,96.81
2022-11-13T15:03:09.834Z,97.01
2022-11-13T15:04:13.508Z,96.98
2022-11-13T15:05:17.396Z,97.17
2022-11-13T15:06:29.197Z,96.92
2022-11-13T15:07:38.985Z,96.90
2022-11-13T15:08:51.160Z,96.99
2022-11-13T15:09:57.083Z,97.14
2022-11-13T15:11:02.137Z,97.22
2022-11-13T15:12:11.001Z,97.33
2022-11-13T15:13:18.257Z,97.27
2022-11-13T15:14:23.213Z,97.52
2022-11-13T15:15:31.063Z,97.76
2022-11-13T15:16:36.863Z,97.84
2022-11-13T15:17:43.523Z,98.09
2022-11-13T15:18:58.858Z,97.89
2022-11-13T15:20:09.307Z,97.48
2022-11-13T15:21:13.707Z,97.75
2022-11-13T15:22:27.208Z,98.05
2022-11-13T15:23:35.731Z,97.51
2022-11-13T15:24:40.022Z,97.83
2022-11-13T15:25:46.355Z,97.68
2022-11-13T15:26:54.297Z,97.90
2022-11-13T15:27:58.304Z,98.19
2022-11-13T15:29:02.710Z,97.94
2022-11-13T15:30:07.121Z,97.84
2022-11-13T15:31:20.390Z,97.87
2022-11-13T15:32:24.926Z,98.05
2022-11-13T15:33:29.506Z,98.11
2022-11-13T15:34:33.451Z,98.35
2022-11-13T15:35:37.070Z,98.50
2022-11-13T15:36:46.059Z,99.11
2022-11-13T15:37:50.012Z,99.74
2022-11-13T15:38:54.587Z,99.08
2022-11-13T15:39:59.631Z,98.79
2022-11-13T15:41:12.285Z,99.10
2022-11-13T15:42:21.948Z,98.91
2022-11-13T15:43:26.056Z,98.85
2022-11-13T15:44:32.480Z,99.00
2022-11-13T15:45:39.892Z,98.73
2022-11-13T15:46:47.127Z,98.77
2022-11-13T15:47:50.696Z,99.38
2022-11-13T15:48:56.283Z,99.72
2022-11-13T15:50:16.672Z,99.54
2022-11-13T15:51:37.779Z,99.14
2022-11-13T15:52:47.035Z,98.97
2022-11-13T15:54:31.410Z,99.93
2022-11-13T15:55:37.534Z,99.77
2022-11-13T15:56:42.541Z,99.91